createdAt,value
2023-05-19T00:02:11.712Z,69.50
2023-05-19T00:04:05.438Z,69.36
2023-05-19T00:05:59.027Z,69.29
2023-05-19T00:07:52.642Z,69.26
2023-05-19T00:09:44.379Z,69.09
2023-05-19T00:11:37.570Z,69.35
2023-05-19T00:13:29.821Z,69.43
2023-05-19T00:15:22.016Z,69.48
2023-05-19T00:17:14.453Z,69.53
2023-05-19T00:19:11.480Z,69.50
2023-05-19T00:21:02.912Z,69.30
2023-05-19T00:22:54.394Z,69.28
2023-05-19T00:24:46.582Z,69.28
2023-05-19T00:26:38.337Z,69.16
2023-05-19T00:28:29.974Z,69.14
2023-05-19T00:30:23.122Z,69.24
2023-05-19T00:32:15.808Z,69.33
2023-05-19T00:34:07.422Z,69.41
2023-05-19T00:35:59.784Z,69.44
2023-05-19T00:37:51.171Z,69.49
2023-05-19T00:39:42.553Z,69.62
2023-05-19T00:41:33.744Z,69.37
2023-05-19T00:43:25.199Z,69.65
2023-05-19T00:45:17.133Z,69.36
2023-05-19T00:47:09.272Z,69.39
2023-05-19T00:49:01.170Z,69.27
2023-05-19T00:51:10.357Z,69.40
2023-05-19T00:54:08.101Z,69.41
2023-05-19T00:56:12.948Z,69.49
2023-05-19T00:58:33.134Z,69.31
2023-05-19T01:08:40.148Z,69.92
2023-05-19T01:10:31.976Z,69.42
2023-05-19T01:12:23.786Z,69.53
2023-05-19T01:14:16.376Z,69.44
2023-05-19T01:16:48.661Z,69.45
2023-05-19T01:26:46.017Z,70.39
2023-05-19T01:32:06.626Z,70.22
2023-05-19T01:34:00.140Z,70.60
2023-05-19T01:35:51.198Z,70.58
2023-05-19T01:37:42.065Z,70.93
2023-05-19T01:39:32.838Z,71.27
2023-05-19T01:41:24.026Z,71.57
2023-05-19T01:43:21.165Z,71.60
2023-05-19T01:45:11.561Z,72.10
2023-05-19T01:47:02.345Z,72.30
2023-05-19T01:48:53.040Z,72.34
2023-05-19T01:50:44.068Z,72.51
2023-05-19T01:52:35.126Z,72.75
2023-05-19T01:54:25.386Z,72.82
2023-05-19T01:56:21.753Z,72.78
2023-05-19T01:58:18.894Z,72.82
2023-05-19T02:00:32.788Z,73.16
2023-05-19T02:02:53.742Z,73.33
2023-05-19T02:04:50.925Z,73.72
2023-05-19T02:10:04.693Z,73.88
2023-05-19T02:12:01.778Z,73.86
2023-05-19T02:13:55.818Z,74.04
2023-05-19T02:15:47.284Z,73.98
2023-05-19T02:17:47.120Z,74.15
2023-05-19T02:19:39.628Z,74.31
2023-05-19T02:21:30.548Z,74.44
2023-05-19T02:23:20.918Z,74.35
2023-05-19T02:25:11.164Z,74.49
2023-05-19T02:27:01.989Z,74.70
2023-05-19T02:28:52.083Z,74.74
2023-05-19T02:30:42.248Z,74.66
2023-05-19T02:32:32.618Z,74.77
2023-05-19T02:34:22.515Z,74.77
2023-05-19T02:36:13.946Z,74.89
2023-05-19T02:38:04.543Z,74.96
2023-05-19T02:39:54.779Z,75.11
2023-05-19T02:41:45.369Z,75.03
2023-05-19T02:43:35.754Z,75.22
2023-05-19T02:45:28.013Z,75.37
2023-05-19T02:47:18.464Z,75.25
2023-05-19T02:49:08.814Z,75.36
2023-05-19T02:50:58.872Z,75.48
2023-05-19T02:52:49.150Z,75.47
2023-05-19T02:54:39.228Z,75.37
2023-05-19T02:56:29.317Z,75.42
2023-05-19T02:58:19.970Z,75.39
2023-05-19T03:00:10.599Z,75.46
2023-05-19T03:02:01.798Z,75.45
2023-05-19T03:03:52.234Z,75.45
2023-05-19T03:05:43.085Z,75.57
2023-05-19T03:07:33.115Z,75.49
2023-05-19T03:09:24.420Z,75.50
2023-05-19T03:11:14.816Z,75.52
2023-05-19T03:13:05.480Z,75.43
2023-05-19T03:14:55.587Z,75.43
2023-05-19T03:16:45.882Z,75.65
2023-05-19T03:18:36.601Z,75.65
2023-05-19T03:20:26.997Z,75.77
2023-05-19T03:22:20.694Z,75.95
2023-05-19T03:24:11.267Z,75.88
2023-05-19T03:26:01.510Z,75.94
2023-05-19T03:27:51.876Z,75.67
2023-05-19T03:29:42.346Z,75.53
2023-05-19T03:31:32.385Z,75.44
2023-05-19T03:33:23.434Z,75.54
2023-05-19T03:35:13.650Z,75.38
2023-05-19T03:37:03.967Z,75.21
2023-05-19T03:38:54.514Z,75.26
2023-05-19T03:40:44.968Z,75.17
2023-05-19T03:42:35.084Z,75.24
2023-05-19T03:44:25.143Z,75.12
2023-05-19T03:46:15.117Z,75.40
2023-05-19T03:48:06.396Z,75.21
2023-05-19T03:49:56.482Z,75.34
2023-05-19T03:51:46.744Z,75.28
2023-05-19T03:53:37.438Z,75.27
2023-05-19T03:55:29.305Z,75.32
2023-05-19T03:57:25.660Z,75.29
2023-05-19T03:59:16.046Z,75.18
2023-05-19T04:01:06.576Z,75.20
2023-05-19T04:02:56.762Z,75.26
2023-05-19T04:04:47.422Z,75.00
2023-05-19T04:06:48.665Z,75.23
2023-05-19T04:08:39.427Z,75.38
2023-05-19T04:10:30.371Z,75.01
2023-05-19T04:12:21.016Z,74.81
2023-05-19T04:14:31.051Z,74.84
2023-05-19T04:16:32.718Z,75.05
2023-05-19T04:18:23.340Z,74.99
2023-05-19T04:20:13.740Z,74.77
2023-05-19T04:22:04.475Z,74.68
2023-05-19T04:23:54.852Z,74.68
2023-05-19T04:25:48.012Z,74.12
2023-05-19T04:27:38.680Z,74.06
2023-05-19T04:29:28.873Z,74.04
2023-05-19T04:31:20.995Z,74.03
2023-05-19T04:33:11.397Z,73.43
2023-05-19T04:35:02.597Z,73.30
2023-05-19T04:36:53.466Z,73.46
2023-05-19T04:38:45.321Z,73.53
2023-05-19T04:40:36.500Z,73.48
2023-05-19T04:42:29.966Z,73.35
2023-05-19T04:44:20.051Z,73.18
2023-05-19T04:46:13.872Z,72.68
2023-05-19T04:48:04.529Z,72.53
2023-05-19T04:50:16.260Z,72.42
2023-05-19T04:52:09.932Z,71.75
2023-05-19T04:54:00.865Z,71.56
2023-05-19T04:55:52.175Z,71.56
2023-05-19T04:57:42.462Z,71.47
2023-05-19T04:59:33.394Z,71.65
2023-05-19T05:01:25.492Z,71.42
2023-05-19T05:03:15.873Z,70.91
2023-05-19T05:05:07.244Z,70.94
2023-05-19T05:06:57.489Z,71.06
2023-05-19T05:08:48.340Z,70.80
2023-05-19T05:10:38.704Z,70.13
2023-05-19T05:12:29.234Z,69.85
2023-05-19T05:14:19.610Z,70.00
2023-05-19T05:16:10.848Z,69.86
2023-05-19T05:18:01.246Z,69.71
2023-05-19T05:19:52.217Z,69.59
2023-05-19T05:21:48.054Z,69.35
2023-05-19T05:23:38.480Z,69.31
2023-05-19T05:25:28.961Z,69.51
2023-05-19T05:27:19.148Z,69.22
2023-05-19T05:29:09.904Z,69.33
2023-05-19T05:31:00.174Z,69.76
2023-05-19T05:32:50.748Z,69.20
2023-05-19T05:34:41.385Z,69.22
2023-05-19T05:36:34.295Z,69.45
2023-05-19T05:38:25.310Z,69.11
2023-05-19T05:40:15.471Z,69.10
2023-05-19T05:42:08.417Z,69.01
2023-05-19T05:43:58.905Z,69.32
2023-05-19T05:45:49.070Z,68.93
2023-05-19T05:47:40.910Z,69.17
2023-05-19T05:49:31.577Z,69.13
2023-05-19T05:51:22.247Z,68.41
2023-05-19T05:53:17.688Z,68.13
2023-05-19T05:55:08.489Z,68.28
2023-05-19T05:56:58.671Z,68.46
2023-05-19T05:58:49.032Z,68.78
2023-05-19T06:00:39.079Z,68.78
2023-05-19T06:02:29.494Z,68.24
2023-05-19T06:04:20.492Z,68.76
2023-05-19T06:06:11.082Z,68.63
2023-05-19T06:08:01.580Z,68.39
2023-05-19T06:09:51.889Z,68.32
2023-05-19T06:11:42.153Z,68.66
2023-05-19T06:13:32.142Z,68.17
2023-05-19T06:15:22.384Z,68.06
2023-05-19T06:17:12.847Z,68.28
2023-05-19T06:19:03.158Z,67.92
2023-05-19T06:20:53.301Z,68.16
2023-05-19T06:22:43.638Z,68.49
2023-05-19T06:24:34.056Z,68.03
2023-05-19T06:26:24.571Z,68.20
2023-05-19T06:28:14.889Z,67.82
2023-05-19T06:30:07.980Z,67.84
2023-05-19T06:31:58.613Z,67.31
2023-05-19T06:33:48.866Z,67.85
2023-05-19T06:35:39.187Z,67.67
2023-05-19T06:37:29.489Z,67.63
2023-05-19T06:39:19.438Z,67.75
2023-05-19T06:41:09.849Z,68.00
2023-05-19T06:43:00.380Z,67.81
2023-05-19T06:44:51.740Z,67.95
2023-05-19T06:46:45.387Z,68.06
2023-05-19T06:48:35.628Z,68.29
2023-05-19T06:50:25.900Z,68.55
2023-05-19T06:52:46.839Z,68.68
2023-05-19T06:54:38.082Z,68.04
2023-05-19T06:56:28.570Z,68.19
2023-05-19T06:58:18.841Z,68.19
2023-05-19T07:00:11.624Z,68.57
2023-05-19T07:02:01.842Z,68.57
2023-05-19T07:03:52.304Z,68.53
2023-05-19T07:05:42.724Z,68.27
2023-05-19T07:07:33.116Z,68.20
2023-05-19T07:09:23.457Z,68.43
2023-05-19T07:11:19.840Z,68.48
2023-05-19T07:13:10.274Z,67.90
2023-05-19T07:15:00.889Z,67.77
2023-05-19T07:16:51.084Z,67.48
2023-05-19T07:18:41.755Z,67.62
2023-05-19T07:20:32.140Z,67.79
2023-05-19T07:22:23.572Z,67.94
2023-05-19T07:24:13.765Z,67.56
2023-05-19T07:26:03.888Z,67.21
2023-05-19T07:27:54.177Z,67.17
2023-05-19T07:29:44.298Z,67.50
2023-05-19T07:31:34.438Z,67.56
2023-05-19T07:33:26.394Z,67.72
2023-05-19T07:35:16.531Z,67.64
2023-05-19T07:37:07.068Z,67.62
2023-05-19T07:38:57.347Z,67.63
2023-05-19T07:40:48.066Z,67.88
2023-05-19T07:42:38.221Z,67.37
2023-05-19T07:44:30.749Z,67.77
2023-05-19T07:46:21.639Z,67.83
2023-05-19T07:48:12.248Z,67.40
2023-05-19T07:50:03.146Z,67.11
2023-05-19T07:51:53.808Z,67.16
2023-05-19T07:53:44.233Z,67.56
2023-05-19T07:55:34.347Z,67.51
2023-05-19T07:57:24.773Z,67.34
2023-05-19T07:59:15.385Z,67.71
2023-05-19T08:01:05.730Z,67.79
2023-05-19T08:02:56.715Z,67.71
2023-05-19T08:04:48.883Z,67.38
2023-05-19T08:06:42.011Z,67.19
2023-05-19T08:08:32.758Z,67.21
2023-05-19T08:10:23.128Z,67.37
2023-05-19T08:12:13.408Z,67.44
2023-05-19T08:14:04.118Z,67.53
2023-05-19T08:15:58.922Z,67.17
2023-05-19T08:17:49.327Z,66.86
2023-05-19T08:19:39.369Z,66.99
2023-05-19T08:21:29.360Z,66.95
2023-05-19T08:23:19.377Z,67.03
2023-05-19T08:25:09.766Z,67.19
2023-05-19T08:27:00.039Z,67.22
2023-05-19T08:28:50.252Z,67.11
2023-05-19T08:30:40.843Z,67.32
2023-05-19T08:32:31.478Z,66.89
2023-05-19T08:34:21.860Z,66.69
2023-05-19T08:36:12.424Z,66.62
2023-05-19T08:38:02.486Z,66.36
2023-05-19T08:39:52.437Z,66.24
2023-05-19T08:41:42.715Z,65.89
2023-05-19T08:43:33.151Z,65.23
2023-05-19T08:45:23.946Z,65.74
2023-05-19T08:47:14.618Z,65.17
2023-05-19T08:49:11.803Z,64.44
2023-05-19T08:51:34.404Z,63.75
2023-05-19T08:53:37.068Z,63.84
2023-05-19T08:55:41.672Z,62.33
2023-05-19T08:57:32.356Z,62.41
2023-05-19T08:59:22.654Z,61.81
2023-05-19T09:01:16.290Z,61.52
2023-05-19T09:05:02.803Z,61.42
2023-05-19T09:06:53.221Z,61.34
2023-05-19T09:08:43.678Z,61.28
2023-05-19T09:10:35.852Z,60.93
2023-05-19T09:12:26.025Z,60.57
2023-05-19T09:14:16.040Z,60.54
2023-05-19T09:16:07.459Z,60.14
2023-05-19T09:18:06.559Z,59.98
2023-05-19T09:19:56.604Z,59.80
2023-05-19T09:21:58.858Z,59.55
2023-05-19T09:23:49.325Z,60.00
2023-05-19T09:25:47.854Z,60.77
2023-05-19T09:27:37.569Z,60.36
2023-05-19T09:29:27.499Z,60.46
2023-05-19T09:31:17.202Z,60.67
2023-05-19T09:33:09.397Z,61.48
2023-05-19T09:35:02.421Z,60.68
2023-05-19T09:36:53.625Z,60.51
2023-05-19T09:38:45.206Z,60.44
2023-05-19T09:40:35.365Z,60.17
2023-05-19T09:42:26.544Z,59.45
2023-05-19T09:44:20.906Z,59.84
2023-05-19T09:46:12.169Z,59.51
2023-05-19T09:48:05.700Z,58.19
2023-05-19T09:49:56.641Z,58.23
2023-05-19T09:51:50.944Z,57.40
2023-05-19T09:53:41.454Z,58.27
2023-05-19T09:55:33.018Z,57.39
2023-05-19T09:57:27.867Z,57.66
2023-05-19T09:59:18.768Z,57.87
2023-05-19T10:01:09.255Z,56.08
2023-05-19T10:03:01.607Z,56.91
2023-05-19T10:04:54.500Z,56.96
2023-05-19T10:06:45.539Z,55.73
2023-05-19T10:08:37.212Z,54.12
2023-05-19T10:10:28.588Z,54.27
2023-05-19T10:12:19.959Z,53.07
2023-05-19T10:14:10.101Z,54.19
2023-05-19T10:16:00.885Z,55.47
2023-05-19T10:17:51.918Z,54.70
2023-05-19T10:19:43.450Z,54.78
2023-05-19T10:21:34.157Z,53.68
2023-05-19T10:23:24.939Z,53.48
2023-05-19T10:25:17.988Z,53.76
2023-05-19T10:27:14.153Z,53.79
2023-05-19T10:29:04.559Z,53.76
2023-05-19T10:30:59.243Z,54.39
2023-05-19T10:32:51.280Z,54.76
2023-05-19T10:35:19.667Z,54.69
2023-05-19T10:37:15.420Z,54.87
2023-05-19T10:39:32.251Z,54.37
2023-05-19T10:41:35.108Z,54.22
2023-05-19T10:43:53.645Z,54.48
2023-05-19T10:45:54.167Z,54.80
2023-05-19T10:47:45.240Z,55.65
2023-05-19T10:49:37.303Z,56.10
2023-05-19T10:51:31.506Z,55.71
2023-05-19T10:53:22.051Z,56.29
2023-05-19T10:55:17.036Z,57.08
2023-05-19T10:57:07.658Z,57.52
2023-05-19T10:58:57.878Z,58.12
2023-05-19T11:00:59.834Z,58.09
2023-05-19T11:02:55.434Z,58.17
2023-05-19T11:04:50.981Z,58.35
2023-05-19T11:06:50.763Z,58.59
2023-05-19T11:08:40.856Z,58.02
2023-05-19T11:10:31.379Z,59.07
2023-05-19T11:12:24.552Z,58.32
2023-05-19T11:14:17.696Z,57.51
2023-05-19T11:16:08.651Z,57.47
2023-05-19T11:18:01.007Z,57.29
2023-05-19T11:19:55.292Z,57.77
2023-05-19T11:21:54.313Z,58.26
2023-05-19T11:23:44.613Z,58.38
2023-05-19T11:25:42.810Z,58.58
2023-05-19T11:27:34.302Z,58.56
2023-05-19T11:29:24.400Z,59.25
2023-05-19T11:31:14.526Z,59.26
2023-05-19T11:33:05.542Z,59.11
2023-05-19T11:34:56.990Z,59.88
2023-05-19T11:36:47.577Z,59.45
2023-05-19T11:38:37.606Z,59.78
2023-05-19T11:40:28.817Z,59.64
2023-05-19T11:42:19.461Z,60.05
2023-05-19T11:44:11.156Z,60.07
2023-05-19T11:46:01.084Z,59.61
2023-05-19T11:48:02.063Z,60.02
2023-05-19T11:49:55.959Z,60.55
2023-05-19T11:51:46.369Z,60.93
2023-05-19T11:53:37.996Z,61.51
2023-05-19T11:55:28.000Z,61.47
2023-05-19T11:58:07.158Z,61.65
2023-05-19T12:00:02.640Z,62.06
2023-05-19T12:01:53.923Z,62.35
2023-05-19T12:03:46.720Z,62.04
2023-05-19T12:05:47.345Z,62.20
2023-05-19T12:07:40.541Z,62.27
2023-05-19T12:09:33.055Z,62.30
2023-05-19T12:11:24.630Z,62.92
2023-05-19T12:13:17.316Z,63.24
2023-05-19T12:15:09.941Z,62.49
2023-05-19T12:17:15.408Z,62.38
2023-05-19T12:19:06.990Z,61.93
2023-05-19T12:20:58.785Z,62.23
2023-05-19T12:22:51.082Z,62.24
2023-05-19T12:24:43.528Z,62.51
2023-05-19T12:26:36.072Z,61.90
2023-05-19T12:28:31.303Z,61.96
2023-05-19T12:30:29.433Z,62.14
2023-05-19T12:32:25.712Z,61.76
2023-05-19T12:34:17.470Z,61.76
2023-05-19T12:36:10.393Z,61.99
2023-05-19T12:38:12.284Z,62.41
2023-05-19T12:40:04.668Z,62.53
2023-05-19T12:42:10.511Z,62.59
2023-05-19T12:44:02.328Z,62.38
2023-05-19T12:45:54.349Z,62.24
2023-05-19T12:47:48.404Z,62.34
2023-05-19T12:50:09.397Z,62.27
2023-05-19T12:52:07.236Z,61.77
2023-05-19T12:54:05.073Z,61.66
2023-05-19T12:55:57.106Z,62.18
2023-05-19T12:57:56.865Z,62.11
2023-05-19T12:59:51.554Z,62.36
2023-05-19T13:01:43.491Z,62.65
2023-05-19T13:03:42.073Z,62.70
2023-05-19T13:05:43.602Z,63.06
2023-05-19T13:07:36.209Z,63.35
2023-05-19T13:09:28.618Z,62.98
2023-05-19T13:11:20.226Z,62.87
2023-05-19T13:13:12.949Z,63.05
2023-05-19T13:15:04.733Z,62.82
2023-05-19T13:16:56.422Z,62.94
2023-05-19T13:18:47.808Z,62.39
2023-05-19T13:20:41.187Z,62.79
2023-05-19T13:22:33.211Z,62.57
2023-05-19T13:24:25.276Z,62.86
2023-05-19T13:26:17.155Z,62.43
2023-05-19T13:28:09.678Z,62.64
2023-05-19T13:30:01.913Z,62.59
2023-05-19T13:31:53.394Z,62.78
2023-05-19T13:33:45.317Z,62.56
2023-05-19T13:35:37.978Z,62.70
2023-05-19T13:37:30.375Z,62.43
2023-05-19T13:39:21.942Z,62.43
2023-05-19T13:41:16.003Z,62.87
2023-05-19T13:43:08.723Z,62.71
2023-05-19T13:45:00.370Z,62.52
2023-05-19T13:46:52.435Z,62.29
2023-05-19T13:48:44.424Z,62.28
2023-05-19T13:50:35.877Z,62.30
2023-05-19T13:52:58.372Z,62.41
2023-05-19T13:54:38.824Z,62.61
2023-05-19T13:56:31.513Z,62.89
2023-05-19T13:58:23.425Z,62.92
2023-05-19T14:00:15.419Z,63.23
2023-05-19T14:02:07.284Z,62.95
2023-05-19T14:04:00.845Z,63.01
2023-05-19T14:05:53.158Z,63.39
2023-05-19T14:07:45.127Z,62.93
2023-05-19T14:09:36.970Z,62.95
2023-05-19T14:11:29.187Z,62.78
2023-05-19T14:13:32.006Z,62.83
2023-05-19T14:15:27.056Z,62.44
2023-05-19T14:17:18.609Z,63.48
2023-05-19T14:19:11.353Z,62.93
2023-05-19T14:21:03.014Z,62.81
2023-05-19T14:22:55.517Z,62.47
2023-05-19T14:24:47.187Z,62.68
2023-05-19T14:26:38.905Z,62.71
2023-05-19T14:28:30.413Z,62.14
2023-05-19T14:30:22.205Z,62.20
2023-05-19T14:32:14.010Z,62.22
2023-05-19T14:34:05.811Z,62.09
2023-05-19T14:36:00.164Z,62.37
2023-05-19T14:37:51.716Z,62.60
2023-05-19T14:39:43.963Z,62.67
2023-05-19T14:41:35.673Z,62.47
2023-05-19T14:43:27.630Z,62.80
2023-05-19T14:45:19.419Z,63.01
2023-05-19T14:47:12.537Z,62.98
2023-05-19T14:49:06.504Z,63.14
2023-05-19T14:50:58.201Z,62.34
2023-05-19T14:52:49.738Z,62.07
2023-05-19T14:54:40.936Z,62.19
2023-05-19T14:56:32.512Z,62.52
2023-05-19T14:58:29.006Z,62.75
2023-05-19T15:00:20.989Z,63.06
2023-05-19T15:02:12.728Z,62.61
2023-05-19T15:04:04.237Z,62.82
2023-05-19T15:05:56.257Z,62.59
2023-05-19T15:07:47.662Z,63.01
2023-05-19T15:09:40.598Z,62.60
2023-05-19T15:11:34.184Z,62.76
2023-05-19T15:13:26.428Z,62.38
2023-05-19T15:15:18.570Z,61.91
2023-05-19T15:17:10.684Z,62.24
2023-05-19T15:19:02.205Z,61.40
2023-05-19T15:20:53.395Z,61.68
2023-05-19T15:22:45.064Z,62.00
2023-05-19T15:24:36.239Z,61.42
2023-05-19T15:26:29.742Z,61.20
2023-05-19T15:28:21.723Z,60.70
2023-05-19T15:30:13.194Z,60.75
2023-05-19T15:32:05.474Z,61.51
2023-05-19T15:33:57.213Z,61.95
2023-05-19T15:35:51.855Z,61.27
2023-05-19T15:37:43.657Z,60.64
2023-05-19T15:39:35.441Z,60.95
2023-05-19T15:41:27.179Z,60.92
2023-05-19T15:43:21.381Z,61.18
2023-05-19T15:45:12.967Z,61.44
2023-05-19T15:47:05.021Z,61.16
2023-05-19T15:48:56.514Z,61.01
2023-05-19T15:50:48.864Z,61.35
2023-05-19T15:52:40.450Z,60.73
2023-05-19T15:54:31.877Z,60.80
2023-05-19T15:56:23.672Z,60.79
2023-05-19T15:58:16.845Z,60.48
2023-05-19T16:00:09.295Z,60.58
2023-05-19T16:02:00.935Z,60.49
2023-05-19T16:03:52.877Z,60.09
2023-05-19T16:05:44.385Z,60.40
2023-05-19T16:07:36.298Z,60.82
2023-05-19T16:09:27.718Z,61.09
2023-05-19T16:11:20.745Z,60.95
2023-05-19T16:13:12.897Z,61.33
2023-05-19T16:15:04.801Z,61.14
2023-05-19T16:16:56.803Z,60.98
2023-05-19T16:18:49.638Z,61.50
2023-05-19T16:20:42.035Z,61.89
2023-05-19T16:22:33.682Z,62.15
2023-05-19T16:24:25.615Z,61.88
2023-05-19T16:26:17.365Z,61.69
2023-05-19T16:28:09.206Z,61.71
2023-05-19T16:30:01.319Z,61.80
2023-05-19T16:31:52.936Z,61.92
2023-05-19T16:33:44.721Z,61.92
2023-05-19T16:35:36.378Z,62.35
2023-05-19T16:37:28.093Z,62.37
2023-05-19T16:39:19.977Z,62.49
2023-05-19T16:41:11.951Z,62.58
2023-05-19T16:43:03.867Z,62.95
2023-05-19T16:44:55.799Z,62.83
2023-05-19T16:46:46.972Z,62.96
2023-05-19T16:48:38.788Z,63.01
2023-05-19T16:50:30.306Z,63.39
2023-05-19T16:52:22.134Z,63.36
2023-05-19T16:54:13.686Z,63.25
2023-05-19T16:56:08.305Z,63.38
2023-05-19T16:57:59.825Z,63.54
2023-05-19T16:59:51.253Z,63.88
2023-05-19T17:01:44.433Z,64.20
2023-05-19T17:03:36.151Z,64.59
2023-05-19T17:05:28.083Z,64.39
2023-05-19T17:07:20.379Z,64.39
2023-05-19T17:09:12.353Z,64.56
2023-05-19T17:11:03.883Z,64.45
2023-05-19T17:12:55.255Z,64.58
2023-05-19T17:14:46.854Z,64.65
2023-05-19T17:16:38.704Z,64.92
2023-05-19T17:18:31.468Z,64.90
2023-05-19T17:20:23.236Z,65.15
2023-05-19T17:22:15.127Z,65.17
2023-05-19T17:24:07.623Z,65.21
2023-05-19T17:25:59.355Z,65.28
2023-05-19T17:27:52.774Z,65.39
2023-05-19T17:29:44.495Z,65.45
2023-05-19T17:31:36.650Z,65.58
2023-05-19T17:33:28.243Z,65.55
2023-05-19T17:35:20.048Z,65.72
2023-05-19T17:37:11.567Z,65.89
2023-05-19T17:39:03.698Z,65.94
2023-05-19T17:41:02.205Z,66.09
2023-05-19T17:42:53.884Z,66.32
2023-05-19T17:44:45.835Z,66.30
2023-05-19T17:46:39.350Z,66.38
2023-05-19T17:48:31.253Z,66.29
2023-05-19T17:50:22.712Z,66.66
2023-05-19T17:52:15.976Z,66.56
2023-05-19T17:54:08.203Z,66.52
2023-05-19T17:56:02.501Z,66.75
2023-05-19T17:57:54.409Z,66.56
2023-05-19T17:59:46.592Z,66.61
2023-05-19T18:01:38.486Z,66.66
2023-05-19T18:03:30.864Z,66.92
2023-05-19T18:05:22.875Z,66.87
2023-05-19T18:07:14.744Z,66.91
2023-05-19T18:09:09.869Z,66.96
2023-05-19T18:11:03.021Z,67.12
2023-05-19T18:12:54.464Z,67.10
2023-05-19T18:14:45.670Z,67.16
2023-05-19T18:16:37.278Z,67.27
2023-05-19T18:18:28.682Z,67.33
2023-05-19T18:20:20.452Z,67.41
2023-05-19T18:22:13.168Z,67.27
2023-05-19T18:24:05.548Z,67.26
2023-05-19T18:25:58.187Z,67.26
2023-05-19T18:27:49.963Z,67.52
2023-05-19T18:29:42.431Z,67.62
2023-05-19T18:31:34.087Z,67.78
2023-05-19T18:33:26.802Z,67.71
2023-05-19T18:35:21.225Z,67.90
2023-05-19T18:37:13.084Z,67.83
2023-05-19T18:39:04.961Z,67.83
2023-05-19T18:40:56.828Z,67.72
2023-05-19T18:42:48.502Z,67.82
2023-05-19T18:44:39.903Z,67.93
2023-05-19T18:46:32.022Z,68.34
2023-05-19T18:48:26.308Z,68.22
2023-05-19T18:50:18.091Z,68.18
2023-05-19T18:52:11.821Z,68.26
2023-05-19T18:54:03.424Z,68.38
2023-05-19T18:55:55.393Z,68.29
2023-05-19T18:57:46.756Z,68.35
2023-05-19T18:59:39.060Z,68.51
2023-05-19T19:01:31.175Z,68.44
2023-05-19T19:03:22.888Z,68.51
2023-05-19T19:05:14.962Z,68.68
2023-05-19T19:07:06.991Z,68.86
2023-05-19T19:08:58.948Z,69.01
2023-05-19T19:10:51.612Z,69.21
2023-05-19T19:12:43.247Z,68.87
2023-05-19T19:14:34.678Z,69.08
2023-05-19T19:16:27.510Z,69.08
2023-05-19T19:18:19.395Z,69.28
2023-05-19T19:20:11.586Z,69.23
2023-05-19T19:22:03.258Z,69.20
2023-05-19T19:23:55.487Z,69.39
2023-05-19T19:25:47.173Z,69.43
2023-05-19T19:27:38.806Z,69.43
2023-05-19T19:29:30.887Z,69.63
2023-05-19T19:31:23.768Z,69.53
2023-05-19T19:33:18.117Z,69.54
2023-05-19T19:35:09.743Z,69.79
2023-05-19T19:37:01.805Z,69.83
2023-05-19T19:38:53.813Z,70.08
2023-05-19T19:40:45.285Z,69.96
2023-05-19T19:42:38.570Z,70.28
2023-05-19T19:44:30.106Z,70.21
2023-05-19T19:46:21.580Z,70.24
2023-05-19T19:48:13.500Z,70.32
2023-05-19T19:50:05.819Z,70.51
2023-05-19T19:51:58.071Z,70.65
2023-05-19T19:53:49.654Z,70.90
2023-05-19T19:55:43.151Z,70.82
2023-05-19T19:57:35.175Z,71.00
2023-05-19T19:59:26.993Z,71.13
2023-05-19T20:01:23.589Z,71.19
2023-05-19T20:03:16.480Z,71.18
2023-05-19T20:05:08.955Z,71.23
2023-05-19T20:07:00.758Z,71.49
2023-05-19T20:08:52.741Z,71.54
2023-05-19T20:10:46.493Z,71.57
2023-05-19T20:12:38.395Z,71.64
2023-05-19T20:14:30.724Z,71.77
2023-05-19T20:16:24.194Z,71.73
2023-05-19T20:18:15.950Z,71.82
2023-05-19T20:20:10.977Z,71.84
2023-05-19T20:22:02.476Z,71.81
2023-05-19T20:23:53.906Z,71.99
2023-05-19T20:26:09.424Z,72.06
2023-05-19T20:27:58.611Z,72.15
2023-05-19T20:29:50.132Z,72.23
2023-05-19T20:31:41.649Z,72.28
2023-05-19T20:33:33.550Z,72.24
2023-05-19T20:35:25.468Z,72.29
2023-05-19T20:37:17.533Z,72.34
2023-05-19T20:39:10.288Z,72.35
2023-05-19T20:41:02.112Z,72.54
2023-05-19T20:42:53.788Z,72.87
2023-05-19T20:44:45.832Z,72.93
2023-05-19T20:46:37.727Z,72.77
2023-05-19T20:48:29.044Z,72.97
2023-05-19T20:50:20.562Z,73.01
2023-05-19T20:52:12.128Z,73.14
2023-05-19T20:54:05.364Z,73.08
2023-05-19T20:55:56.993Z,73.18
2023-05-19T20:57:48.629Z,73.29
2023-05-19T20:59:40.552Z,73.32
2023-05-19T21:01:32.415Z,73.62
2023-05-19T21:03:25.082Z,73.44
2023-05-19T21:05:16.835Z,73.59
2023-05-19T21:07:08.808Z,73.76
2023-05-19T21:09:03.791Z,73.76
2023-05-19T21:10:56.004Z,73.68
2023-05-19T21:12:47.759Z,73.86
2023-05-19T21:14:39.045Z,73.85
2023-05-19T21:16:31.545Z,74.07
2023-05-19T21:18:23.202Z,74.00
2023-05-19T21:20:14.518Z,74.08
2023-05-19T21:22:06.335Z,74.16
2023-05-19T21:23:58.089Z,74.19
2023-05-19T21:25:50.596Z,74.29
2023-05-19T21:27:42.757Z,74.37
2023-05-19T21:29:34.358Z,74.48
2023-05-19T21:31:25.721Z,74.58
2023-05-19T21:33:17.378Z,74.48
2023-05-19T21:35:09.517Z,74.68
2023-05-19T21:37:01.226Z,74.74
2023-05-19T21:38:53.261Z,74.76
2023-05-19T21:40:47.151Z,74.75
2023-05-19T21:42:38.601Z,74.77
2023-05-19T21:44:31.823Z,74.86
2023-05-19T21:46:23.100Z,75.03
2023-05-19T21:48:14.496Z,75.03
2023-05-19T21:50:07.053Z,75.06
2023-05-19T21:51:58.599Z,74.93
2023-05-19T21:53:50.484Z,75.07
2023-05-19T21:55:41.892Z,75.20
2023-05-19T21:57:33.701Z,75.06
2023-05-19T21:59:26.365Z,75.28
2023-05-19T22:01:18.283Z,75.38
2023-05-19T22:03:10.349Z,75.28
2023-05-19T22:05:02.125Z,75.51
2023-05-19T22:06:53.887Z,75.60
2023-05-19T22:08:46.076Z,75.67
2023-05-19T22:10:37.841Z,75.64
2023-05-19T22:12:31.518Z,75.68
2023-05-19T22:14:22.752Z,75.59
2023-05-19T22:16:14.413Z,75.81
2023-05-19T22:18:07.049Z,75.72
2023-05-19T22:19:58.863Z,75.89
2023-05-19T22:21:53.756Z,75.74
2023-05-19T22:23:53.556Z,75.84
2023-05-19T22:25:44.962Z,75.77
2023-05-19T22:27:36.701Z,75.99
2023-05-19T22:29:28.080Z,75.88
2023-05-19T22:31:19.476Z,76.04
2023-05-19T22:33:12.023Z,75.98
2023-05-19T22:35:03.930Z,76.08
2023-05-19T22:36:55.615Z,76.25
2023-05-19T22:38:47.740Z,76.43
2023-05-19T22:40:39.313Z,76.43
2023-05-19T22:42:31.212Z,76.47
2023-05-19T22:44:22.547Z,76.49
2023-05-19T22:46:13.886Z,76.44
2023-05-19T22:48:06.143Z,76.52
2023-05-19T22:49:57.670Z,76.73
2023-05-19T22:51:49.689Z,76.55
2023-05-19T22:53:42.620Z,76.68
2023-05-19T22:55:34.347Z,77.04
2023-05-19T22:57:26.517Z,76.83
2023-05-19T22:59:18.293Z,76.86
2023-05-19T23:01:10.034Z,76.93
2023-05-19T23:03:01.666Z,76.95
2023-05-19T23:04:53.531Z,76.99
2023-05-19T23:06:47.122Z,76.96
2023-05-19T23:08:39.260Z,76.98
2023-05-19T23:10:31.454Z,76.86
2023-05-19T23:12:23.107Z,77.04
2023-05-19T23:14:14.682Z,77.14
2023-05-19T23:16:07.739Z,77.12
2023-05-19T23:18:01.298Z,77.31
2023-05-19T23:19:52.883Z,77.31
2023-05-19T23:21:49.428Z,77.29
2023-05-19T23:23:41.029Z,77.52
2023-05-19T23:25:32.489Z,77.55
2023-05-19T23:27:24.040Z,77.51
2023-05-19T23:29:15.814Z,77.54
2023-05-19T23:31:07.615Z,77.68
2023-05-19T23:32:59.349Z,77.66
2023-05-19T23:34:51.061Z,77.87
2023-05-19T23:36:42.407Z,77.61
